Time;durP1;ratioP1;P1;durP2;ratioP2;P2;SDS_P1;SDS_P2;PMS_P1;PMS_P2;Temp;Humidity;BMP_temperature;BMP_pressure;BME280_temperature;BME280_humidity;BME280_pressure;Samples;Min_cycle;Max_cycle;Signal;HPM_P1;HPM_P2
2022/05/17 00:01:19;;;;;;;5.22;2.80;;;;;;;;;;6315358;22;20021;-80
2022/05/17 00:03:47;;;;;;;9.00;2.90;;;;;;;;;;6315608;22;20023;-81
2022/05/17 00:06:15;;;;;;;5.63;2.42;;;;;;;;;;6315908;22;20708;-80
2022/05/17 00:08:43;;;;;;;5.88;2.60;;;;;;;;;;6317305;22;20015;-81
2022/05/17 00:11:11;;;;;;;7.35;2.85;;;;;;;;;;6325210;22;20022;-80
2022/05/17 00:13:39;;;;;;;5.35;2.60;;;;;;;;;;6333574;22;20014;-80
2022/05/17 00:16:07;;;;;;;5.38;2.85;;;;;;;;;;6325382;22;20031;-81
2022/05/17 00:18:36;;;;;;;5.25;2.30;;;;;;;;;;6318006;22;20025;-80
2022/05/17 00:21:04;;;;;;;5.88;2.45;;;;;;;;;;6289905;22;20053;-80
2022/05/17 00:23:36;;;;;;;8.65;3.20;;;;;;;;;;6317004;22;20011;-80
2022/05/17 00:26:10;;;;;;;7.60;3.08;;;;;;;;;;6278794;22;20478;-80
2022/05/17 00:28:38;;;;;;;5.45;2.83;;;;;;;;;;6316239;22;20034;-80
2022/05/17 00:31:06;;;;;;;7.72;2.80;;;;;;;;;;6309418;22;20149;-76
2022/05/17 00:33:33;;;;;;;9.60;3.00;;;;;;;;;;6308151;22;20019;-77
2022/05/17 00:36:02;;;;;;;8.10;2.90;;;;;;;;;;6310354;22;20015;-84
2022/05/17 00:38:31;;;;;;;6.43;2.95;;;;;;;;;;6250248;22;20027;-84
2022/05/17 00:41:00;;;;;;;6.68;2.90;;;;;;;;;;6286073;22;20022;-83
2022/05/17 00:46:32;;;;;;;9.77;3.55;;;;;;;;;;6311178;22;20125;-84
2022/05/17 00:49:01;;;;;;;6.78;2.85;;;;;;;;;;6312115;22;20038;-83
2022/05/17 00:51:33;;;;;;;8.65;4.03;;;;;;;;;;6224900;22;20126;-83
2022/05/17 00:54:07;;;;;;;10.55;3.53;;;;;;;;;;6311787;22;20019;-83
2022/05/17 00:56:42;;;;;;;8.00;3.15;;;;;;;;;;6312051;22;20638;-84
2022/05/17 00:59:13;;;;;;;6.68;3.42;;;;;;;;;;6249594;22;20459;-83
2022/05/17 01:01:42;;;;;;;9.90;3.83;;;;;;;;;;6274082;22;20068;-83
2022/05/17 01:04:54;;;;;;;9.65;3.22;;;;;;;;;;6274306;22;20426;-86
2022/05/17 01:08:39;;;;;;;7.18;3.20;;;;;;;;;;6180839;23;20027;-86
2022/05/17 01:31:32;;;;;;;9.95;3.25;;;;;;;;;;5954293;24;20031;-86
2022/05/17 01:40:47;;;;;;;8.75;3.00;;;;;;;;;;5952097;24;20180;-85
2022/05/17 01:45:04;;;;;;;6.03;3.17;;;;;;;;;;5946017;24;20459;-85
2022/05/17 01:54:08;;;;;;;7.00;3.05;;;;;;;;;;5953514;24;20104;-85
2022/05/17 01:58:50;;;;;;;6.82;2.90;;;;;;;;;;5973370;24;20020;-85
2022/05/17 02:03:27;;;;;;;5.63;2.90;;;;;;;;;;5976868;23;20027;-85
2022/05/17 02:12:33;;;;;;;9.93;3.63;;;;;;;;;;5926087;24;20032;-85
2022/05/17 02:16:46;;;;;;;11.85;3.45;;;;;;;;;;5893980;24;20048;-85
2022/05/17 02:20:55;;;;;;;8.57;3.30;;;;;;;;;;5833080;24;20034;-85
2022/05/17 02:24:49;;;;;;;12.30;4.03;;;;;;;;;;5802832;24;20035;-85
2022/05/17 02:27:17;;;;;;;8.82;3.65;;;;;;;;;;5835228;24;20086;-83
2022/05/17 02:29:47;;;;;;;6.95;3.47;;;;;;;;;;5817966;24;20828;-83
2022/05/17 02:32:29;;;;;;;12.55;3.90;;;;;;;;;;5836635;24;20507;-83
2022/05/17 02:34:59;;;;;;;11.07;3.90;;;;;;;;;;5831601;24;20088;-83
2022/05/17 02:37:28;;;;;;;6.75;3.45;;;;;;;;;;5861855;24;20865;-83
2022/05/17 02:39:55;;;;;;;10.38;4.13;;;;;;;;;;5871553;24;20060;-83
2022/05/17 02:42:24;;;;;;;8.90;4.10;;;;;;;;;;5876533;24;20160;-83
2022/05/17 02:44:51;;;;;;;9.18;3.38;;;;;;;;;;5954018;23;20040;-83
2022/05/17 02:47:19;;;;;;;8.50;3.42;;;;;;;;;;5930025;24;20104;-83
2022/05/17 02:50:42;;;;;;;8.60;3.42;;;;;;;;;;5943382;23;20520;-83
2022/05/17 02:54:16;;;;;;;8.82;3.85;;;;;;;;;;5957670;23;20313;-85
2022/05/17 03:03:24;;;;;;;7.18;3.55;;;;;;;;;;6037570;23;20052;-85
2022/05/17 03:07:49;;;;;;;8.40;3.15;;;;;;;;;;6002148;23;20038;-85
2022/05/17 03:11:32;;;;;;;6.55;3.20;;;;;;;;;;5977887;24;20104;-85
2022/05/17 03:15:23;;;;;;;7.18;3.45;;;;;;;;;;5889103;24;20029;-83
2022/05/17 03:17:51;;;;;;;7.93;3.75;;;;;;;;;;5897180;24;20034;-83
2022/05/17 03:20:21;;;;;;;8.68;4.03;;;;;;;;;;5897496;24;20025;-83
2022/05/17 03:22:52;;;;;;;12.52;4.43;;;;;;;;;;5908315;24;20033;-83
2022/05/17 03:25:19;;;;;;;8.65;3.97;;;;;;;;;;5892821;24;20093;-83
2022/05/17 03:27:54;;;;;;;9.25;3.95;;;;;;;;;;5961592;24;20029;-83
2022/05/17 03:30:21;;;;;;;8.02;3.80;;;;;;;;;;5951694;24;20036;-84
2022/05/17 03:33:45;;;;;;;5.53;3.65;;;;;;;;;;5945413;24;20072;-85
2022/05/17 03:37:40;;;;;;;6.90;3.83;;;;;;;;;;5949484;24;20089;-85
2022/05/17 03:42:09;;;;;;;16.77;4.00;;;;;;;;;;5921982;24;20032;-85
2022/05/17 04:04:29;;;;;;;8.05;3.78;;;;;;;;;;5916879;24;20020;-85
2022/05/17 04:09:16;;;;;;;11.05;5.32;;;;;;;;;;5851758;24;20034;-84
2022/05/17 04:13:13;;;;;;;8.85;4.63;;;;;;;;;;5860673;24;20026;-84
2022/05/17 04:15:58;;;;;;;6.95;4.03;;;;;;;;;;5821590;24;20048;-84
2022/05/17 04:18:40;;;;;;;8.07;4.53;;;;;;;;;;5812474;24;20051;-84
2022/05/17 04:21:21;;;;;;;10.38;4.93;;;;;;;;;;5830528;24;20056;-85
2022/05/17 04:24:23;;;;;;;7.68;4.30;;;;;;;;;;5862147;24;20141;-84
2022/05/17 04:32:43;;;;;;;10.30;5.13;;;;;;;;;;5897729;24;20021;-84
2022/05/17 04:35:25;;;;;;;13.63;5.65;;;;;;;;;;5904862;24;20028;-84
2022/05/17 04:39:02;;;;;;;9.82;5.13;;;;;;;;;;5924452;24;20116;-85
2022/05/17 04:43:34;;;;;;;8.88;5.03;;;;;;;;;;5889085;24;20497;-86
2022/05/17 04:47:20;;;;;;;9.68;5.07;;;;;;;;;;5883861;24;20025;-86
2022/05/17 04:51:00;;;;;;;9.73;5.25;;;;;;;;;;5884637;24;20084;-85
2022/05/17 04:58:56;;;;;;;10.23;4.90;;;;;;;;;;5924757;24;20036;-84
2022/05/17 05:01:38;;;;;;;11.43;5.20;;;;;;;;;;5945106;24;20033;-84
2022/05/17 05:05:00;;;;;;;8.70;5.70;;;;;;;;;;5944789;24;20029;-83
2022/05/17 05:07:32;;;;;;;14.80;6.22;;;;;;;;;;5992630;23;20046;-84
2022/05/17 05:10:00;;;;;;;12.68;5.78;;;;;;;;;;6064801;23;20078;-84
2022/05/17 05:13:22;;;;;;;12.38;5.55;;;;;;;;;;6039749;23;20034;-83
2022/05/17 05:17:27;;;;;;;13.38;5.88;;;;;;;;;;5999744;23;20040;-84
2022/05/17 05:21:37;;;;;;;8.48;5.75;;;;;;;;;;6076178;23;20775;-84
2022/05/17 05:30:40;;;;;;;11.10;5.35;;;;;;;;;;6008664;23;20040;-83
2022/05/17 05:34:28;;;;;;;9.90;5.82;;;;;;;;;;5998678;23;20054;-87
2022/05/17 05:38:30;;;;;;;10.30;5.78;;;;;;;;;;5945637;23;20035;-89
2022/05/17 05:42:35;;;;;;;13.10;6.32;;;;;;;;;;5901796;24;20939;-87
2022/05/17 05:46:39;;;;;;;16.83;6.55;;;;;;;;;;5907456;24;20151;-83
2022/05/17 05:49:49;;;;;;;13.38;6.38;;;;;;;;;;5841775;24;20041;-83
2022/05/17 05:52:30;;;;;;;16.63;6.68;;;;;;;;;;5825292;24;20049;-83
2022/05/17 05:55:23;;;;;;;12.00;6.95;;;;;;;;;;5804425;24;20531;-83
2022/05/17 05:58:23;;;;;;;13.93;7.30;;;;;;;;;;5814606;24;20507;-84
2022/05/17 06:01:07;;;;;;;13.32;6.65;;;;;;;;;;5876004;24;20039;-82
2022/05/17 06:03:36;;;;;;;16.27;7.57;;;;;;;;;;5953446;24;20029;-83
2022/05/17 06:06:18;;;;;;;11.45;6.85;;;;;;;;;;5953702;24;20410;-84
2022/05/17 06:08:46;;;;;;;14.15;7.30;;;;;;;;;;5955008;24;20367;-82
2022/05/17 06:11:15;;;;;;;16.02;7.53;;;;;;;;;;5945715;23;20130;-82
2022/05/17 06:13:44;;;;;;;15.45;6.93;;;;;;;;;;6126359;23;20021;-83
2022/05/17 06:16:12;;;;;;;14.70;7.43;;;;;;;;;;6150468;23;20029;-82
2022/05/17 06:18:40;;;;;;;16.30;7.63;;;;;;;;;;6133553;23;20350;-83
2022/05/17 06:21:08;;;;;;;13.20;7.18;;;;;;;;;;6246125;23;20028;-83
2022/05/17 06:23:36;;;;;;;16.58;7.78;;;;;;;;;;6248273;22;20015;-83
2022/05/17 06:26:05;;;;;;;12.98;7.72;;;;;;;;;;6247375;22;20023;-83
2022/05/17 06:28:32;;;;;;;11.25;6.95;;;;;;;;;;6310441;22;20405;-83
2022/05/17 06:31:00;;;;;;;15.70;7.07;;;;;;;;;;6268939;22;20023;-83
2022/05/17 06:33:29;;;;;;;13.13;7.07;;;;;;;;;;6310458;22;20080;-83
2022/05/17 06:36:55;;;;;;;;;;;;;;;;;;6198139;23;20129;-86
2022/05/17 06:39:30;;;;;;;11.23;6.72;;;;;;;;;;6177714;23;20010;-87
2022/05/17 06:42:06;;;;;;;15.73;7.53;;;;;;;;;;6178638;23;20016;-87
2022/05/17 06:44:42;;;;;;;10.52;6.60;;;;;;;;;;6214132;23;20556;-87
2022/05/17 06:47:10;;;;;;;13.18;7.50;;;;;;;;;;6182787;23;20116;-87
2022/05/17 06:49:53;;;;;;;11.55;6.88;;;;;;;;;;6166530;23;20028;-86
2022/05/17 06:52:36;;;;;;;17.60;7.68;;;;;;;;;;6192506;23;20083;-86
2022/05/17 06:55:18;;;;;;;12.90;7.50;;;;;;;;;;6213495;23;20098;-86
2022/05/17 06:58:02;;;;;;;11.07;7.18;;;;;;;;;;6190491;23;20027;-88
2022/05/17 07:00:46;;;;;;;11.07;6.93;;;;;;;;;;6156795;23;20032;-81
2022/05/17 07:03:15;;;;;;;13.90;6.63;;;;;;;;;;6212896;23;20020;-81
2022/05/17 07:05:44;;;;;;;11.38;7.25;;;;;;;;;;6188673;23;20050;-81
2022/05/17 07:08:12;;;;;;;10.82;7.00;;;;;;;;;;6298660;22;20051;-81
2022/05/17 07:13:26;;;;;;;11.93;7.40;;;;;;;;;;6308502;22;20020;-81
2022/05/17 07:15:54;;;;;;;13.98;7.32;;;;;;;;;;6307973;22;20023;-81
2022/05/17 07:18:23;;;;;;;11.57;6.65;;;;;;;;;;6307073;22;20030;-80
2022/05/17 07:20:52;;;;;;;11.60;7.15;;;;;;;;;;6308696;22;20015;-79
2022/05/17 07:23:21;;;;;;;11.18;6.38;;;;;;;;;;6307166;22;20470;-80
2022/05/17 07:25:48;;;;;;;15.55;8.95;;;;;;;;;;6304781;22;20025;-75
2022/05/17 07:28:18;;;;;;;16.33;9.60;;;;;;;;;;6304086;22;20027;-75
2022/05/17 07:30:46;;;;;;;16.50;9.98;;;;;;;;;;6305226;22;20565;-75
2022/05/17 07:33:14;;;;;;;16.20;10.57;;;;;;;;;;6304278;22;20019;-75
2022/05/17 07:35:42;;;;;;;17.25;10.23;;;;;;;;;;6308267;22;20061;-79
2022/05/17 07:38:10;;;;;;;14.68;8.73;;;;;;;;;;6309102;22;20584;-79
2022/05/17 07:40:39;;;;;;;15.73;9.80;;;;;;;;;;6308206;22;20081;-78
2022/05/17 07:43:06;;;;;;;18.88;9.50;;;;;;;;;;6311342;22;20043;-78
2022/05/17 07:45:34;;;;;;;20.00;10.13;;;;;;;;;;6311032;22;20103;-78
2022/05/17 07:48:03;;;;;;;15.98;9.73;;;;;;;;;;6320526;22;20463;-78
2022/05/17 07:50:30;;;;;;;15.95;9.23;;;;;;;;;;6323138;22;20051;-78
2022/05/17 07:53:06;;;;;;;17.95;10.23;;;;;;;;;;6323885;22;20067;-79
2022/05/17 07:55:39;;;;;;;19.17;9.88;;;;;;;;;;6320563;22;20023;-79
2022/05/17 07:58:07;;;;;;;16.65;9.38;;;;;;;;;;6317349;22;20015;-78
2022/05/17 08:00:35;;;;;;;16.02;10.05;;;;;;;;;;6322339;22;20019;-79
2022/05/17 08:03:04;;;;;;;21.45;9.88;;;;;;;;;;6324260;22;20046;-79
2022/05/17 08:05:32;;;;;;;19.30;10.57;;;;;;;;;;6300887;22;20079;-81
2022/05/17 08:08:00;;;;;;;20.60;10.57;;;;;;;;;;6338937;22;20019;-79
2022/05/17 08:10:29;;;;;;;19.70;10.13;;;;;;;;;;6335072;22;20023;-79
2022/05/17 08:12:56;;;;;;;19.50;10.25;;;;;;;;;;6329663;22;20021;-80
2022/05/17 08:15:24;;;;;;;19.95;10.80;;;;;;;;;;6318055;22;20053;-79
2022/05/17 08:18:01;;;;;;;18.53;9.73;;;;;;;;;;6275764;22;20031;-80
2022/05/17 08:20:31;;;;;;;17.83;9.88;;;;;;;;;;6312461;22;20282;-80
2022/05/17 08:23:01;;;;;;;17.73;10.30;;;;;;;;;;6311133;22;20196;-80
2022/05/17 08:28:14;;;;;;;19.70;10.18;;;;;;;;;;6274641;22;20122;-80
2022/05/17 08:30:43;;;;;;;17.08;9.07;;;;;;;;;;6310941;22;20023;-80
2022/05/17 08:33:15;;;;;;;15.38;8.52;;;;;;;;;;6308710;22;20093;-80
2022/05/17 08:35:57;;;;;;;14.18;8.25;;;;;;;;;;6309926;22;20082;-80
2022/05/17 08:38:30;;;;;;;16.85;8.55;;;;;;;;;;6310642;22;20027;-80
2022/05/17 08:41:23;;;;;;;16.08;8.00;;;;;;;;;;6309893;22;20076;-80
2022/05/17 08:44:02;;;;;;;11.80;7.57;;;;;;;;;;6283179;22;20019;-80
2022/05/17 08:47:06;;;;;;;14.35;8.15;;;;;;;;;;6300718;22;20019;-80
2022/05/17 08:49:58;;;;;;;13.15;7.43;;;;;;;;;;6182574;23;20079;-80
2022/05/17 08:52:28;;;;;;;11.65;6.57;;;;;;;;;;6149979;23;20131;-80
2022/05/17 08:54:56;;;;;;;11.15;6.40;;;;;;;;;;6182587;23;20024;-80
2022/05/17 08:57:49;;;;;;;10.25;6.13;;;;;;;;;;6183231;23;20028;-80
2022/05/17 09:00:28;;;;;;;11.57;6.00;;;;;;;;;;6184186;23;20080;-80
2022/05/17 09:03:26;;;;;;;11.43;6.60;;;;;;;;;;6183533;23;20167;-80
2022/05/17 09:06:35;;;;;;;11.93;6.53;;;;;;;;;;6124476;23;20021;-80
2022/05/17 09:09:31;;;;;;;11.25;6.55;;;;;;;;;;6124371;23;20065;-79
2022/05/17 09:12:14;;;;;;;11.55;6.65;;;;;;;;;;6112116;23;20069;-80
2022/05/17 09:14:49;;;;;;;11.18;6.60;;;;;;;;;;6122810;23;20036;-80
2022/05/17 09:17:21;;;;;;;8.43;5.22;;;;;;;;;;6123150;23;20053;-80
2022/05/17 09:19:52;;;;;;;12.07;6.00;;;;;;;;;;6123330;23;20059;-80
2022/05/17 09:22:22;;;;;;;8.43;5.28;;;;;;;;;;6122373;23;20133;-80
2022/05/17 09:24:58;;;;;;;9.55;5.82;;;;;;;;;;6123193;23;20160;-76
2022/05/17 09:27:35;;;;;;;8.52;5.20;;;;;;;;;;6174225;23;20025;-76
2022/05/17 09:30:12;;;;;;;8.13;5.10;;;;;;;;;;6181312;23;20075;-76
2022/05/17 09:32:44;;;;;;;8.15;5.47;;;;;;;;;;6179404;23;20766;-76
2022/05/17 09:35:20;;;;;;;7.90;5.05;;;;;;;;;;6156120;23;20029;-77
2022/05/17 09:37:56;;;;;;;7.28;4.72;;;;;;;;;;6180172;23;20097;-77
2022/05/17 09:40:27;;;;;;;8.20;4.88;;;;;;;;;;6180653;23;20024;-77
2022/05/17 09:42:57;;;;;;;7.55;5.07;;;;;;;;;;6239673;22;20022;-77
2022/05/17 09:45:36;;;;;;;7.53;4.63;;;;;;;;;;6309839;22;20035;-76
2022/05/17 09:48:07;;;;;;;8.95;5.30;;;;;;;;;;6306615;22;20315;-76
2022/05/17 09:53:44;;;;;;;7.47;4.90;;;;;;;;;;6306073;22;20015;-76
2022/05/17 09:56:13;;;;;;;7.85;4.57;;;;;;;;;;6305822;22;20045;-77
2022/05/17 09:58:42;;;;;;;6.45;4.63;;;;;;;;;;6306579;22;20077;-77
2022/05/17 10:01:21;;;;;;;8.40;4.20;;;;;;;;;;6305130;22;20019;-77
2022/05/17 10:04:18;;;;;;;6.55;4.65;;;;;;;;;;6307302;22;20090;-77
2022/05/17 10:06:47;;;;;;;;;;;;;;;;;;6307831;22;20493;-77
2022/05/17 10:09:29;;;;;;;6.18;4.45;;;;;;;;;;6307238;22;19926;-76
2022/05/17 10:12:18;;;;;;;6.15;4.45;;;;;;;;;;6306072;22;20410;-76
2022/05/17 10:15:02;;;;;;;6.60;4.55;;;;;;;;;;6307493;22;20012;-79
2022/05/17 10:17:42;;;;;;;6.45;4.88;;;;;;;;;;6265706;22;20019;-75
2022/05/17 10:20:18;;;;;;;6.03;4.75;;;;;;;;;;6269970;22;20039;-75
2022/05/17 10:22:55;;;;;;;6.63;4.70;;;;;;;;;;6306615;22;20034;-76
2022/05/17 10:25:36;;;;;;;6.95;4.55;;;;;;;;;;6308004;22;20019;-80
2022/05/17 10:28:30;;;;;;;6.63;4.40;;;;;;;;;;6309285;22;20026;-80
2022/05/17 10:31:13;;;;;;;7.85;4.60;;;;;;;;;;6283857;22;20030;-80
2022/05/17 10:33:54;;;;;;;6.95;4.53;;;;;;;;;;6306960;22;20018;-80
2022/05/17 10:36:35;;;;;;;6.93;4.72;;;;;;;;;;6280861;22;20099;-80
2022/05/17 10:39:30;;;;;;;5.80;4.70;;;;;;;;;;6307081;22;20043;-80
2022/05/17 10:41:58;;;;;;;6.05;4.65;;;;;;;;;;6306787;22;20019;-80
2022/05/17 10:44:37;;;;;;;7.00;4.60;;;;;;;;;;6279618;22;20011;-80
2022/05/17 10:47:12;;;;;;;6.22;4.50;;;;;;;;;;6306148;22;20019;-80
2022/05/17 10:50:21;;;;;;;6.40;5.28;;;;;;;;;;6270036;22;20015;-80
2022/05/17 10:53:06;;;;;;;6.45;4.70;;;;;;;;;;6308218;22;20025;-80
2022/05/17 10:55:50;;;;;;;6.25;5.00;;;;;;;;;;6306596;22;20026;-80
2022/05/17 10:58:36;;;;;;;6.10;4.50;;;;;;;;;;6306874;22;20053;-80
2022/05/17 11:01:26;;;;;;;6.75;4.15;;;;;;;;;;6243581;22;20019;-80
2022/05/17 11:04:18;;;;;;;5.30;3.83;;;;;;;;;;6308228;22;20019;-81
2022/05/17 11:07:09;;;;;;;7.22;4.03;;;;;;;;;;6307537;22;20018;-80
2022/05/17 11:09:48;;;;;;;6.68;3.80;;;;;;;;;;6307891;22;20022;-80
2022/05/17 11:12:22;;;;;;;5.82;3.65;;;;;;;;;;6305388;22;20023;-80
2022/05/17 11:14:54;;;;;;;5.03;3.22;;;;;;;;;;6307082;22;20022;-81
2022/05/17 11:17:40;;;;;;;3.85;2.97;;;;;;;;;;6295509;22;20713;-80
2022/05/17 11:20:33;;;;;;;6.43;2.90;;;;;;;;;;6307229;22;20026;-81
2022/05/17 11:23:36;;;;;;;5.65;2.92;;;;;;;;;;6308320;22;20022;-81
2022/05/17 11:26:28;;;;;;;4.90;3.13;;;;;;;;;;6244197;22;20122;-81
2022/05/17 11:29:34;;;;;;;5.60;2.72;;;;;;;;;;6307818;22;20069;-80
2022/05/17 11:32:24;;;;;;;5.38;2.70;;;;;;;;;;6310027;22;20043;-81
2022/05/17 11:34:53;;;;;;;6.32;3.10;;;;;;;;;;6290729;22;20592;-81
2022/05/17 11:37:32;;;;;;;6.40;2.70;;;;;;;;;;6310411;22;20091;-81
2022/05/17 11:40:08;;;;;;;4.28;2.90;;;;;;;;;;6272424;22;20047;-80
2022/05/17 11:45:49;;;;;;;4.45;3.00;;;;;;;;;;6243400;23;20027;-80
2022/05/17 11:48:21;;;;;;;3.72;2.75;;;;;;;;;;6240985;23;20362;-76
2022/05/17 11:50:52;;;;;;;4.20;2.65;;;;;;;;;;6240717;23;20106;-76
2022/05/17 11:53:22;;;;;;;4.13;2.88;;;;;;;;;;6240759;23;20551;-76
2022/05/17 11:56:14;;;;;;;4.35;2.70;;;;;;;;;;6215639;23;20090;-76
2022/05/17 11:58:48;;;;;;;5.00;2.90;;;;;;;;;;6240477;23;20048;-77
2022/05/17 12:01:37;;;;;;;5.57;2.75;;;;;;;;;;6238616;23;20028;-77
2022/05/17 12:04:06;;;;;;;5.28;2.70;;;;;;;;;;6239669;23;20043;-77
2022/05/17 12:06:42;;;;;;;7.78;2.70;;;;;;;;;;6241617;23;20056;-77
2022/05/17 12:09:27;;;;;;;4.32;3.05;;;;;;;;;;6241560;23;20028;-75
2022/05/17 12:12:28;;;;;;;4.85;2.88;;;;;;;;;;6242856;23;20023;-76
2022/05/17 12:15:23;;;;;;;6.20;3.25;;;;;;;;;;6242574;23;20031;-77
2022/05/17 12:18:14;;;;;;;5.15;3.40;;;;;;;;;;6240653;23;20122;-77
2022/05/17 12:21:14;;;;;;;5.40;3.30;;;;;;;;;;6242530;23;20596;-77
2022/05/17 12:24:02;;;;;;;5.45;3.67;;;;;;;;;;6303608;22;20076;-77
2022/05/17 12:26:49;;;;;;;6.32;3.53;;;;;;;;;;6307580;22;20389;-77
2022/05/17 12:32:11;;;;;;;4.68;2.95;;;;;;;;;;6303382;22;20023;-77
2022/05/17 12:34:49;;;;;;;4.50;2.92;;;;;;;;;;6307474;22;20043;-76
2022/05/17 12:37:18;;;;;;;4.70;3.20;;;;;;;;;;6305787;22;20015;-77
2022/05/17 12:45:46;;;;;;;4.57;3.25;;;;;;;;;;6210813;23;20028;-77
2022/05/17 12:48:33;;;;;;;5.53;3.45;;;;;;;;;;6212019;23;20035;-79
2022/05/17 12:51:03;;;;;;;5.97;3.40;;;;;;;;;;6211681;23;20200;-78
2022/05/17 12:53:43;;;;;;;7.18;4.25;;;;;;;;;;6212185;23;20025;-76
2022/05/17 12:56:28;;;;;;;6.50;3.65;;;;;;;;;;6212067;23;20696;-76
2022/05/17 12:58:59;;;;;;;4.90;3.10;;;;;;;;;;6212385;23;20024;-76
2022/05/17 13:01:43;;;;;;;8.98;3.80;;;;;;;;;;6174615;23;20123;-76
2022/05/17 13:04:15;;;;;;;7.10;3.78;;;;;;;;;;6212926;23;20021;-76
2022/05/17 13:06:48;;;;;;;6.03;3.85;;;;;;;;;;6177921;23;20403;-76
2022/05/17 13:09:23;;;;;;;5.88;3.50;;;;;;;;;;6187733;23;20076;-76
2022/05/17 13:11:56;;;;;;;5.68;3.20;;;;;;;;;;6210844;23;20164;-76
2022/05/17 13:14:30;;;;;;;6.15;4.07;;;;;;;;;;6211727;23;20067;-75
2022/05/17 13:17:11;;;;;;;6.03;3.47;;;;;;;;;;6199202;23;20020;-76
2022/05/17 13:19:45;;;;;;;5.85;3.75;;;;;;;;;;6186993;23;20108;-75
2022/05/17 13:22:14;;;;;;;5.80;3.60;;;;;;;;;;6296610;22;20060;-75
2022/05/17 13:24:46;;;;;;;5.00;3.28;;;;;;;;;;6296149;22;20027;-75
2022/05/17 13:27:17;;;;;;;6.78;3.55;;;;;;;;;;6281461;22;20462;-76
2022/05/17 13:29:52;;;;;;;6.57;3.85;;;;;;;;;;6308230;22;20019;-74
2022/05/17 13:32:23;;;;;;;4.55;3.15;;;;;;;;;;6305777;22;20104;-74
2022/05/17 13:35:10;;;;;;;5.70;3.50;;;;;;;;;;6307560;22;20011;-74
2022/05/17 13:37:59;;;;;;;5.80;3.33;;;;;;;;;;6306248;22;20027;-74
2022/05/17 13:40:47;;;;;;;4.15;2.83;;;;;;;;;;6307112;22;20019;-74
2022/05/17 13:43:35;;;;;;;5.53;2.90;;;;;;;;;;6305632;22;20038;-74
2022/05/17 13:46:07;;;;;;;4.90;2.67;;;;;;;;;;6300862;22;20019;-74
2022/05/17 13:48:47;;;;;;;4.85;2.63;;;;;;;;;;6306082;22;20023;-74
2022/05/17 13:51:47;;;;;;;3.95;2.50;;;;;;;;;;6306452;22;20683;-74
2022/05/17 13:54:31;;;;;;;3.42;2.22;;;;;;;;;;6307851;22;20042;-74
2022/05/17 13:57:08;;;;;;;3.60;2.50;;;;;;;;;;6306934;22;20764;-74
2022/05/17 13:59:36;;;;;;;3.85;2.58;;;;;;;;;;6306765;22;20038;-74
2022/05/17 14:02:14;;;;;;;5.13;2.45;;;;;;;;;;6303986;22;20053;-80
2022/05/17 14:04:46;;;;;;;4.93;2.55;;;;;;;;;;6306321;22;20041;-80
2022/05/17 14:07:20;;;;;;;4.25;2.55;;;;;;;;;;6306526;22;20024;-80
2022/05/17 14:13:26;;;;;;;7.00;3.30;;;;;;;;;;6307855;22;20489;-80
2022/05/17 14:16:02;;;;;;;;;;;;;;;;;;6305480;22;20077;-80
2022/05/17 14:18:34;;;;;;;6.85;3.17;;;;;;;;;;6305803;22;20033;-79
2022/05/17 14:21:05;;;;;;;5.40;3.13;;;;;;;;;;6306716;22;20648;-80
2022/05/17 14:23:35;;;;;;;5.85;2.75;;;;;;;;;;6306816;22;20026;-80
2022/05/17 14:26:03;;;;;;;9.18;2.70;;;;;;;;;;6306244;22;20052;-80
2022/05/17 14:28:33;;;;;;;4.28;2.40;;;;;;;;;;6307004;22;20559;-80
2022/05/17 14:31:00;;;;;;;3.72;2.08;;;;;;;;;;6305583;22;20086;-80
2022/05/17 14:33:28;;;;;;;4.35;2.20;;;;;;;;;;6305983;22;20101;-80
2022/05/17 14:35:57;;;;;;;4.93;2.60;;;;;;;;;;6307293;22;20015;-80
2022/05/17 14:38:24;;;;;;;3.50;2.22;;;;;;;;;;6307212;22;20026;-74
2022/05/17 14:40:52;;;;;;;5.38;3.10;;;;;;;;;;6305975;22;20042;-73
2022/05/17 14:43:20;;;;;;;8.10;2.70;;;;;;;;;;6305701;22;20883;-74
2022/05/17 14:45:53;;;;;;;5.75;3.10;;;;;;;;;;6306609;22;20039;-73
2022/05/17 14:48:23;;;;;;;5.55;2.70;;;;;;;;;;6305409;22;20450;-74
2022/05/17 14:50:50;;;;;;;7.20;2.97;;;;;;;;;;6305626;22;20043;-73
2022/05/17 14:53:18;;;;;;;5.43;2.92;;;;;;;;;;6305515;22;20023;-74
2022/05/17 14:55:46;;;;;;;6.03;3.10;;;;;;;;;;6304929;22;20030;-73
2022/05/17 15:05:50;;;;;;;5.35;2.88;;;;;;;;;;6305977;22;20430;-74
2022/05/17 15:08:43;;;;;;;5.95;3.40;;;;;;;;;;6304844;22;20125;-74
2022/05/17 15:11:11;;;;;;;5.53;2.72;;;;;;;;;;6303783;22;20086;-74
2022/05/17 15:13:40;;;;;;;9.05;4.20;;;;;;;;;;6305365;22;20068;-73
2022/05/17 15:16:12;;;;;;;5.80;3.65;;;;;;;;;;6302221;22;20030;-74
2022/05/17 15:18:44;;;;;;;6.95;4.07;;;;;;;;;;6304275;22;20528;-79
2022/05/17 15:21:13;;;;;;;7.15;4.32;;;;;;;;;;6294630;22;20058;-79
2022/05/17 15:23:48;;;;;;;8.77;4.97;;;;;;;;;;6274949;22;20099;-79
2022/05/17 15:26:16;;;;;;;8.25;4.82;;;;;;;;;;6305674;22;20615;-81
2022/05/17 15:28:44;;;;;;;9.05;4.53;;;;;;;;;;6244310;22;20123;-80
2022/05/17 15:31:17;;;;;;;7.72;4.63;;;;;;;;;;6298350;22;20117;-89
2022/05/17 15:33:46;;;;;;;9.60;4.70;;;;;;;;;;6309966;22;20019;-88
2022/05/17 15:36:16;;;;;;;9.40;4.90;;;;;;;;;;6285230;22;20072;-89
2022/05/17 15:38:44;;;;;;;7.72;4.43;;;;;;;;;;6273346;22;20027;-88
2022/05/17 15:41:12;;;;;;;8.77;5.07;;;;;;;;;;6311918;22;20018;-89
2022/05/17 15:43:40;;;;;;;10.68;5.13;;;;;;;;;;6311064;22;20026;-88
2022/05/17 15:46:17;;;;;;;7.97;4.97;;;;;;;;;;6319365;22;20073;-89
2022/05/17 21:22:12;;;;;;;11.82;6.40;;;;;;;;;;6352162;22;20019;-84
2022/05/17 21:25:18;;;;;;;10.98;6.50;;;;;;;;;;6344035;22;20728;-83
2022/05/17 21:27:57;;;;;;;10.63;6.63;;;;;;;;;;6335167;22;20018;-83
2022/05/17 21:30:42;;;;;;;;;;;;;;;;;;6341068;22;20014;-79
2022/05/17 21:33:12;;;;;;;9.27;6.25;;;;;;;;;;6343115;22;19925;-77
2022/05/17 21:35:45;;;;;;;11.07;6.82;;;;;;;;;;6345238;22;20021;-80
2022/05/17 21:38:18;;;;;;;11.80;6.65;;;;;;;;;;6346318;22;20028;-80
2022/05/17 21:40:48;;;;;;;11.00;6.60;;;;;;;;;;6344309;22;20026;-81
2022/05/17 21:43:20;;;;;;;11.57;6.82;;;;;;;;;;6347172;22;20437;-81
2022/05/17 21:45:50;;;;;;;8.90;6.10;;;;;;;;;;6346478;22;20030;-80
2022/05/17 21:48:22;;;;;;;10.23;6.97;;;;;;;;;;6348425;22;20010;-80
2022/05/17 21:50:52;;;;;;;9.57;6.22;;;;;;;;;;6346125;22;20477;-78
2022/05/17 21:53:24;;;;;;;10.13;6.43;;;;;;;;;;6341702;22;20051;-78
2022/05/17 21:55:58;;;;;;;11.43;6.05;;;;;;;;;;6305768;22;20023;-79
2022/05/17 21:58:28;;;;;;;9.60;5.70;;;;;;;;;;6342481;22;20426;-78
2022/05/17 22:00:56;;;;;;;7.20;5.07;;;;;;;;;;6340109;22;20019;-75
2022/05/17 22:03:26;;;;;;;7.95;5.05;;;;;;;;;;6316056;22;20121;-79
2022/05/17 22:05:54;;;;;;;6.72;4.90;;;;;;;;;;6344491;22;20089;-77
2022/05/17 22:08:26;;;;;;;7.10;4.72;;;;;;;;;;6343235;22;20105;-78
2022/05/17 22:13:47;;;;;;;5.72;4.15;;;;;;;;;;6351597;22;20023;-81
2022/05/17 22:16:22;;;;;;;6.57;4.78;;;;;;;;;;6355351;22;20015;-80
2022/05/17 22:18:54;;;;;;;5.97;4.05;;;;;;;;;;6354993;22;20067;-80
2022/05/17 22:21:22;;;;;;;5.60;3.95;;;;;;;;;;6347655;22;20076;-81
2022/05/17 22:23:55;;;;;;;6.63;4.20;;;;;;;;;;6344673;22;20018;-79
2022/05/17 22:26:25;;;;;;;6.53;4.15;;;;;;;;;;6343076;22;20010;-80
2022/05/17 22:28:54;;;;;;;6.65;3.55;;;;;;;;;;6330579;22;21093;-80
2022/05/17 22:31:24;;;;;;;6.13;4.15;;;;;;;;;;6340342;22;20026;-78
2022/05/17 22:33:55;;;;;;;6.53;3.35;;;;;;;;;;6340547;22;20014;-78
2022/05/17 22:36:50;;;;;;;5.25;3.78;;;;;;;;;;6337471;22;20021;-78
2022/05/17 22:39:18;;;;;;;5.80;4.10;;;;;;;;;;6338825;22;20014;-77
2022/05/17 22:41:47;;;;;;;8.13;3.50;;;;;;;;;;6337179;22;20454;-77
2022/05/17 22:46:59;;;;;;;8.75;3.50;;;;;;;;;;6337794;22;20106;-77
2022/05/17 22:47:06;;;;;;;5.13;3.58;;;;;;;;;;6328928;22;20041;-80
2022/05/17 22:49:34;;;;;;;4.68;2.85;;;;;;;;;;6342194;22;20022;-79
2022/05/17 22:52:02;;;;;;;5.20;3.35;;;;;;;;;;6342385;22;20046;-79
2022/05/17 22:54:30;;;;;;;4.88;3.17;;;;;;;;;;6344732;22;20019;-79
2022/05/17 22:56:58;;;;;;;5.93;3.20;;;;;;;;;;6350484;22;20416;-77
2022/05/17 22:59:26;;;;;;;3.72;2.55;;;;;;;;;;6329398;22;20103;-78
2022/05/17 23:01:54;;;;;;;3.75;2.90;;;;;;;;;;6340553;22;20042;-77
2022/05/17 23:05:12;;;;;;;4.78;2.85;;;;;;;;;;6335493;22;20017;-86
2022/05/17 23:10:00;;;;;;;5.03;2.60;;;;;;;;;;6260992;22;20099;-85
2022/05/17 23:32:03;;;;;;;3.75;1.52;;;;;;;;;;6241015;22;20043;-86
2022/05/17 23:34:44;;;;;;;2.30;1.40;;;;;;;;;;6165469;23;20066;-84
2022/05/17 23:37:29;;;;;;;2.65;1.30;;;;;;;;;;6230517;23;20020;-85
